createdAt,value
2022-12-25T00:01:56.262Z,27.83
2022-12-25T00:04:58.667Z,28.85
2022-12-25T00:08:00.986Z,25.92
2022-12-25T00:11:09.440Z,24.88
2022-12-25T00:14:11.797Z,28.20
2022-12-25T00:17:14.555Z,29.77
2022-12-25T00:20:17.225Z,31.27
2022-12-25T00:23:19.572Z,27.33
2022-12-25T00:26:22.120Z,27.70
2022-12-25T00:29:24.363Z,27.15
2022-12-25T00:32:27.868Z,20.48
2022-12-25T00:35:30.291Z,28.58
2022-12-25T00:38:33.696Z,28.70
2022-12-25T00:41:54.807Z,22.33
2022-12-25T00:44:57.107Z,30.83
2022-12-25T00:47:59.624Z,32.10
2022-12-25T00:51:04.307Z,36.25
2022-12-25T00:54:06.659Z,33.28
2022-12-25T00:57:09.064Z,33.40
2022-12-25T01:00:12.233Z,34.53
2022-12-25T01:03:14.813Z,27.25
2022-12-25T01:06:17.377Z,38.50
2022-12-25T01:09:38.495Z,33.47
2022-12-25T01:12:42.377Z,39.40
2022-12-25T01:15:44.714Z,30.90
2022-12-25T01:18:47.048Z,32.05
2022-12-25T01:21:49.485Z,29.73
2022-12-25T01:24:52.184Z,31.23
2022-12-25T01:27:54.623Z,28.65
2022-12-25T01:30:57.099Z,27.80
2022-12-25T01:33:59.367Z,34.33
2022-12-25T01:37:01.790Z,33.08
2022-12-25T01:40:05.198Z,30.98
2022-12-25T01:43:18.864Z,24.50
2022-12-25T01:46:21.286Z,25.38
2022-12-25T01:49:25.329Z,33.38
2022-12-25T01:55:31.023Z,31.48
2022-12-25T01:58:33.473Z,27.75
2022-12-25T02:01:36.395Z,30.38
2022-12-25T02:04:46.713Z,28.80
2022-12-25T02:07:49.416Z,29.90
2022-12-25T02:10:51.768Z,30.08
2022-12-25T02:13:54.220Z,29.27
2022-12-25T02:17:35.190Z,23.90
2022-12-25T02:20:44.307Z,26.35
2022-12-25T02:24:30.017Z,26.73
2022-12-25T02:27:38.316Z,26.50
2022-12-25T02:31:02.228Z,27.15
2022-12-25T02:34:27.106Z,24.75
2022-12-25T02:37:53.343Z,26.63
2022-12-25T02:40:58.652Z,26.00
2022-12-25T02:44:21.560Z,23.52
2022-12-25T02:47:54.283Z,28.42
2022-12-25T02:51:16.336Z,29.05
2022-12-25T02:54:41.842Z,28.83
2022-12-25T02:58:06.783Z,28.23
2022-12-25T03:01:54.682Z,26.60
2022-12-25T03:05:17.402Z,25.85
2022-12-25T03:08:27.907Z,29.27
2022-12-25T03:11:33.396Z,27.45
2022-12-25T03:14:54.320Z,30.17
2022-12-25T03:17:59.257Z,28.02
2022-12-25T03:21:21.885Z,29.10
2022-12-25T03:24:42.842Z,30.83
2022-12-25T03:27:47.523Z,31.73
2022-12-25T03:31:14.134Z,33.03
2022-12-25T03:34:43.363Z,27.20
2022-12-25T03:38:13.187Z,28.58
2022-12-25T03:41:49.174Z,27.52
2022-12-25T03:45:25.267Z,30.08
2022-12-25T03:48:47.281Z,28.92
2022-12-25T03:52:08.353Z,28.52
2022-12-25T03:55:30.691Z,25.77
2022-12-25T03:58:52.751Z,28.33
2022-12-25T04:02:14.057Z,31.55
2022-12-25T04:05:35.307Z,30.20
2022-12-25T04:08:56.659Z,29.85
2022-12-25T04:12:17.705Z,25.73
2022-12-25T04:15:38.864Z,27.23
2022-12-25T04:18:59.831Z,25.23
2022-12-25T04:22:21.569Z,23.48
2022-12-25T04:25:42.742Z,25.90
2022-12-25T04:29:03.900Z,27.10
2022-12-25T04:32:25.653Z,26.90
2022-12-25T04:35:46.699Z,27.13
2022-12-25T04:38:49.105Z,27.95
2022-12-25T04:41:51.532Z,31.95
2022-12-25T04:44:53.859Z,29.15
2022-12-25T04:47:56.284Z,68.13
2022-12-25T04:50:58.737Z,37.15
2022-12-25T04:54:01.141Z,27.90
2022-12-25T04:57:03.462Z,31.25
2022-12-25T05:00:06.811Z,28.08
2022-12-25T05:03:09.225Z,22.48
2022-12-25T05:06:11.743Z,30.73
2022-12-25T05:09:14.133Z,26.75
2022-12-25T05:12:16.514Z,34.33
2022-12-25T05:15:19.074Z,31.70
2022-12-25T05:18:21.636Z,28.15
2022-12-25T05:21:24.050Z,31.73
2022-12-25T05:24:27.953Z,33.05
2022-12-25T05:30:32.954Z,28.50
2022-12-25T05:33:35.580Z,31.20
2022-12-25T05:36:39.494Z,47.15
2022-12-25T05:39:42.278Z,36.10
2022-12-25T05:42:44.697Z,37.97
2022-12-25T05:45:47.094Z,33.72
2022-12-25T05:48:49.549Z,30.30
2022-12-25T05:51:51.934Z,30.15
2022-12-25T05:54:54.226Z,28.63
2022-12-25T05:57:56.499Z,28.80
2022-12-25T06:00:59.151Z,26.35
2022-12-25T06:04:03.613Z,25.38
2022-12-25T06:07:09.337Z,24.30
2022-12-25T06:10:11.693Z,22.73
2022-12-25T06:13:14.337Z,21.65
2022-12-25T06:16:16.911Z,21.70
2022-12-25T06:19:22.654Z,21.83
2022-12-25T06:22:29.766Z,21.23
2022-12-25T06:25:32.589Z,23.40
2022-12-25T06:28:35.489Z,30.83
2022-12-25T06:31:37.953Z,26.50
2022-12-25T06:34:40.348Z,27.50
2022-12-25T06:37:42.873Z,22.23
2022-12-25T06:40:45.318Z,22.83
2022-12-25T06:43:51.823Z,21.92
2022-12-25T06:46:54.747Z,20.83
2022-12-25T06:49:57.076Z,22.58
2022-12-25T06:52:59.360Z,23.77
2022-12-25T06:56:16.027Z,26.98
2022-12-25T06:59:18.351Z,25.75
2022-12-25T07:02:22.882Z,24.42
2022-12-25T07:05:25.296Z,23.25
2022-12-25T07:08:27.552Z,20.73
2022-12-25T07:11:29.960Z,21.90
2022-12-25T07:14:32.264Z,23.15
2022-12-25T07:17:36.233Z,20.23
2022-12-25T07:23:52.768Z,27.05
2022-12-25T07:27:00.915Z,27.95
2022-12-25T07:30:10.469Z,27.88
2022-12-25T07:33:14.187Z,29.63
2022-12-25T07:36:16.523Z,35.05
2022-12-25T07:39:18.978Z,31.00
2022-12-25T07:42:25.171Z,48.33
2022-12-25T07:45:29.980Z,41.42
2022-12-25T07:48:32.826Z,84.10
2022-12-25T07:51:35.358Z,67.40
2022-12-25T07:54:37.743Z,78.35
2022-12-25T07:57:40.448Z,102.05
2022-12-25T08:00:42.829Z,77.97
2022-12-25T08:03:49.840Z,49.40
2022-12-25T08:06:52.206Z,35.92
2022-12-25T08:09:54.568Z,56.22
2022-12-25T08:12:57.263Z,37.13
2022-12-25T08:16:01.114Z,57.38
2022-12-25T08:19:03.728Z,58.58
2022-12-25T08:22:06.343Z,54.25
2022-12-25T08:25:09.287Z,45.47
2022-12-25T08:28:11.813Z,41.30
2022-12-25T08:31:18.256Z,60.30
2022-12-25T08:34:20.675Z,34.33
2022-12-25T08:37:23.087Z,23.02
2022-12-25T08:40:25.892Z,21.85
2022-12-25T08:43:28.251Z,22.20
2022-12-25T08:46:30.746Z,22.65
2022-12-25T08:49:33.230Z,22.38
2022-12-25T08:52:36.116Z,22.50
2022-12-25T08:55:38.472Z,24.85
2022-12-25T08:58:41.129Z,29.10
2022-12-25T09:01:43.877Z,28.70
2022-12-25T09:04:47.268Z,31.73
2022-12-25T09:07:49.831Z,22.85
2022-12-25T09:10:52.196Z,27.52
2022-12-25T09:13:54.645Z,43.20
2022-12-25T09:16:57.038Z,34.85
2022-12-25T09:19:59.632Z,34.97
2022-12-25T09:23:01.972Z,29.55
2022-12-25T09:26:08.735Z,35.28
2022-12-25T09:29:14.577Z,37.40
2022-12-25T09:32:19.384Z,32.45
2022-12-25T09:35:23.892Z,39.90
2022-12-25T09:38:27.476Z,27.45
2022-12-25T09:42:02.595Z,36.88
2022-12-25T09:45:13.816Z,34.30
2022-12-25T09:48:16.946Z,35.67
2022-12-25T09:51:20.091Z,32.97
2022-12-25T09:54:29.108Z,24.02
2022-12-25T09:57:31.403Z,27.70
2022-12-25T10:00:44.393Z,25.20
2022-12-25T10:03:55.632Z,22.67
2022-12-25T10:07:14.618Z,23.25
2022-12-25T10:10:28.899Z,38.03
2022-12-25T10:17:07.506Z,28.20
2022-12-25T10:20:15.671Z,27.92
2022-12-25T10:23:42.573Z,23.52
2022-12-25T10:26:45.736Z,21.27
2022-12-25T10:29:50.837Z,24.13
2022-12-25T10:32:53.892Z,23.67
2022-12-25T10:35:56.431Z,17.48
2022-12-25T10:38:59.067Z,24.65
2022-12-25T10:42:37.987Z,26.90
2022-12-25T10:45:47.576Z,26.75
2022-12-25T10:48:52.797Z,24.30
2022-12-25T10:51:55.156Z,25.17
2022-12-25T10:54:57.716Z,30.00
2022-12-25T10:58:02.757Z,30.42
2022-12-25T11:01:08.741Z,34.67
2022-12-25T11:04:20.263Z,25.83
2022-12-25T11:07:26.869Z,27.23
2022-12-25T11:10:32.080Z,28.30
2022-12-25T11:13:40.849Z,24.77
2022-12-25T11:16:43.335Z,25.50
2022-12-25T11:19:53.111Z,23.30
2022-12-25T11:22:55.753Z,21.08
2022-12-25T11:25:58.897Z,22.85
2022-12-25T11:29:01.546Z,21.23
2022-12-25T11:32:06.273Z,25.75
2022-12-25T11:35:14.458Z,25.67
2022-12-25T11:38:16.898Z,29.38
2022-12-25T11:41:20.903Z,28.35
2022-12-25T11:44:40.760Z,29.45
2022-12-25T11:47:49.763Z,23.90
2022-12-25T11:50:58.832Z,25.00
2022-12-25T11:54:19.739Z,24.92
2022-12-25T11:57:24.597Z,27.38
2022-12-25T12:00:28.287Z,30.80
2022-12-25T12:03:38.866Z,28.52
2022-12-25T12:06:54.547Z,27.30
2022-12-25T12:10:15.716Z,33.95
2022-12-25T12:14:02.765Z,35.60
2022-12-25T12:17:05.497Z,32.33
2022-12-25T12:20:31.429Z,33.17
2022-12-25T12:24:17.590Z,31.23
2022-12-25T12:27:20.062Z,31.15
2022-12-25T12:30:28.803Z,35.35
2022-12-25T12:33:35.789Z,35.78
2022-12-25T12:36:38.095Z,34.20
2022-12-25T12:39:41.552Z,34.00
2022-12-25T12:42:50.634Z,25.02
2022-12-25T12:46:06.685Z,35.33
2022-12-25T12:49:11.800Z,47.53
2022-12-25T12:52:31.060Z,36.60
2022-12-25T12:55:35.702Z,31.42
2022-12-25T12:58:45.324Z,34.80
2022-12-25T13:02:03.059Z,29.73
2022-12-25T13:05:45.425Z,33.03
2022-12-25T13:09:12.405Z,33.97
2022-12-25T13:12:15.383Z,47.50
2022-12-25T13:15:27.183Z,47.53
2022-12-25T13:18:34.162Z,41.20
2022-12-25T13:21:37.219Z,33.25
2022-12-25T13:24:40.107Z,52.22
2022-12-25T13:27:42.816Z,34.22
2022-12-25T13:30:47.262Z,32.55
2022-12-25T13:33:51.246Z,29.52
2022-12-25T13:40:07.211Z,32.83
2022-12-25T13:43:11.398Z,36.67
2022-12-25T13:46:15.950Z,34.95
2022-12-25T13:49:31.575Z,36.55
2022-12-25T13:52:38.815Z,37.22
2022-12-25T13:55:42.720Z,37.10
2022-12-25T13:58:47.431Z,39.55
2022-12-25T14:01:51.505Z,37.47
2022-12-25T14:07:58.361Z,42.15
2022-12-25T14:11:06.362Z,34.83
2022-12-25T14:14:35.678Z,37.08
2022-12-25T14:17:38.198Z,39.28
2022-12-25T14:20:42.835Z,42.30
2022-12-25T14:23:47.656Z,39.28
2022-12-25T14:27:03.904Z,51.78
2022-12-25T14:30:13.360Z,59.30
2022-12-25T14:33:19.893Z,41.50
2022-12-25T14:36:22.648Z,45.67
2022-12-25T14:39:31.053Z,51.53
2022-12-25T14:42:35.655Z,101.05
2022-12-25T14:45:38.910Z,142.55
2022-12-25T14:48:41.402Z,39.55
2022-12-25T14:51:44.316Z,39.33
2022-12-25T14:54:59.120Z,51.85
2022-12-25T14:58:06.452Z,51.67
2022-12-25T15:01:20.865Z,42.17
2022-12-25T15:04:23.985Z,45.33
2022-12-25T15:07:31.136Z,44.03
2022-12-25T15:13:56.744Z,48.03
2022-12-25T15:17:01.594Z,72.53
2022-12-25T15:20:04.353Z,54.97
2022-12-25T15:23:22.324Z,132.38
2022-12-25T15:26:26.227Z,53.95
2022-12-25T15:32:51.655Z,47.88
2022-12-25T15:35:54.322Z,44.00
2022-12-25T15:38:56.818Z,51.42
2022-12-25T15:42:12.145Z,48.40
2022-12-25T15:45:22.847Z,85.32
2022-12-25T15:48:25.228Z,69.15
2022-12-25T15:51:27.777Z,72.07
2022-12-25T15:54:31.416Z,77.50
2022-12-25T15:57:35.211Z,73.38
2022-12-25T16:00:37.487Z,73.90
2022-12-25T16:03:39.828Z,273.00
2022-12-25T16:06:42.377Z,144.55
2022-12-25T16:09:45.295Z,57.13
2022-12-25T16:12:47.894Z,48.83
2022-12-25T16:15:50.533Z,45.83
2022-12-25T16:18:52.882Z,42.25
2022-12-25T16:21:55.995Z,46.83
2022-12-25T16:24:58.458Z,48.27
2022-12-25T16:28:03.219Z,45.22
2022-12-25T16:31:05.679Z,51.25
2022-12-25T16:34:08.758Z,48.45
2022-12-25T16:37:11.344Z,39.90
2022-12-25T16:40:13.917Z,84.75
2022-12-25T16:43:21.964Z,160.15
2022-12-25T16:46:26.438Z,86.88
2022-12-25T16:49:28.876Z,52.88
2022-12-25T16:52:32.889Z,57.45
2022-12-25T16:55:36.899Z,46.75
2022-12-25T17:01:45.274Z,49.20
2022-12-25T17:04:48.421Z,49.58
2022-12-25T17:07:51.649Z,89.68
2022-12-25T17:10:54.113Z,40.13
2022-12-25T17:13:58.791Z,72.50
2022-12-25T17:17:01.387Z,50.30
2022-12-25T17:20:04.899Z,50.60
2022-12-25T17:23:07.356Z,44.65
2022-12-25T17:26:09.894Z,45.63
2022-12-25T17:29:17.095Z,45.92
2022-12-25T17:32:22.631Z,43.25
2022-12-25T17:35:25.157Z,53.22
2022-12-25T17:38:29.856Z,39.60
2022-12-25T17:41:33.493Z,41.58
2022-12-25T17:44:36.330Z,40.03
2022-12-25T17:47:38.742Z,44.42
2022-12-25T17:50:41.782Z,47.90
2022-12-25T17:53:47.048Z,34.67
2022-12-25T17:56:49.642Z,36.35
2022-12-25T17:59:52.065Z,48.65
2022-12-25T18:02:54.672Z,42.63
2022-12-25T18:06:00.672Z,69.07
2022-12-25T18:09:06.344Z,62.22
2022-12-25T18:12:09.521Z,41.10
2022-12-25T18:15:13.703Z,47.10
2022-12-25T18:18:16.126Z,42.65
2022-12-25T18:21:19.009Z,38.40
2022-12-25T18:24:21.776Z,43.65
2022-12-25T18:27:24.695Z,38.40
2022-12-25T18:30:27.779Z,39.70
2022-12-25T18:33:30.104Z,32.17
2022-12-25T18:36:32.640Z,40.78
2022-12-25T18:39:35.157Z,43.42
2022-12-25T18:42:40.409Z,45.58
2022-12-25T18:45:43.337Z,44.63
2022-12-25T18:48:46.420Z,68.35
2022-12-25T18:51:49.645Z,37.00
2022-12-25T18:54:52.014Z,28.40
2022-12-25T18:57:54.905Z,50.72
2022-12-25T19:00:57.543Z,48.47
2022-12-25T19:04:04.988Z,41.20
2022-12-25T19:07:08.144Z,42.20
2022-12-25T19:10:10.807Z,44.88
2022-12-25T19:13:13.264Z,46.10
2022-12-25T19:16:15.924Z,56.35
2022-12-25T19:19:21.467Z,46.03
2022-12-25T19:22:24.080Z,45.07
2022-12-25T19:25:26.430Z,44.85
2022-12-25T19:28:31.432Z,53.15
2022-12-25T19:31:35.348Z,58.50
2022-12-25T19:34:37.954Z,44.17
2022-12-25T19:37:40.402Z,38.03
2022-12-25T19:41:00.568Z,43.60
2022-12-25T19:44:03.924Z,35.70
2022-12-25T19:47:06.401Z,33.25
2022-12-25T19:50:09.187Z,37.63
2022-12-25T19:53:11.530Z,38.47
2022-12-25T19:56:14.741Z,41.88
2022-12-25T19:59:17.100Z,48.83
2022-12-25T20:02:19.624Z,43.03
2022-12-25T20:05:22.075Z,42.63
2022-12-25T20:08:24.800Z,57.53
2022-12-25T20:11:29.177Z,46.70
2022-12-25T20:14:31.512Z,43.03
2022-12-25T20:17:33.891Z,36.60
2022-12-25T20:20:36.476Z,38.08
2022-12-25T20:23:39.091Z,34.78
2022-12-25T20:26:43.555Z,35.55
2022-12-25T20:29:49.057Z,37.47
2022-12-25T20:32:51.493Z,40.25
2022-12-25T20:35:55.248Z,38.67
2022-12-25T20:38:57.738Z,38.92
2022-12-25T20:42:00.343Z,42.15
2022-12-25T20:45:02.991Z,43.80
2022-12-25T20:48:05.510Z,38.05
2022-12-25T20:51:19.651Z,38.33
2022-12-25T20:54:21.971Z,41.55
2022-12-25T20:57:24.401Z,43.35
2022-12-25T21:00:26.792Z,38.13
2022-12-25T21:03:29.338Z,41.53
2022-12-25T21:06:31.874Z,38.38
2022-12-25T21:09:34.694Z,37.72
2022-12-25T21:12:37.241Z,39.30
2022-12-25T21:15:44.855Z,39.03
2022-12-25T21:18:47.772Z,40.60
2022-12-25T21:21:51.101Z,38.47
2022-12-25T21:24:54.461Z,43.57
2022-12-25T21:27:59.236Z,38.10
2022-12-25T21:31:03.876Z,39.00
2022-12-25T21:34:06.457Z,51.17
2022-12-25T21:37:08.904Z,38.20
2022-12-25T21:40:16.352Z,39.63
2022-12-25T21:43:19.045Z,38.90
2022-12-25T21:46:21.799Z,44.72
2022-12-25T21:49:42.939Z,41.92
2022-12-25T21:52:45.293Z,39.35
2022-12-25T21:55:58.658Z,42.50
2022-12-25T21:59:02.259Z,30.63
2022-12-25T22:02:11.711Z,46.90
2022-12-25T22:05:34.391Z,46.17
2022-12-25T22:08:37.000Z,48.97
2022-12-25T22:11:58.167Z,50.13
2022-12-25T22:15:06.807Z,49.58
2022-12-25T22:18:28.341Z,44.65
2022-12-25T22:21:30.774Z,45.53
2022-12-25T22:24:33.209Z,41.17
2022-12-25T22:27:38.247Z,40.78
2022-12-25T22:30:44.424Z,43.15
2022-12-25T22:33:46.935Z,41.70
2022-12-25T22:36:49.314Z,43.15
2022-12-25T22:39:51.597Z,39.13
2022-12-25T22:42:55.656Z,41.20
2022-12-25T22:46:01.755Z,39.30
2022-12-25T22:49:04.375Z,38.03
2022-12-25T22:52:10.879Z,39.90
2022-12-25T22:55:17.247Z,42.13
2022-12-25T22:58:19.740Z,36.50
2022-12-25T23:01:22.255Z,39.28
2022-12-25T23:04:24.697Z,36.83
2022-12-25T23:07:27.068Z,39.97
2022-12-25T23:10:29.639Z,38.17
2022-12-25T23:13:51.163Z,40.63
2022-12-25T23:16:53.533Z,38.85
2022-12-25T23:20:15.873Z,38.13
2022-12-25T23:23:37.172Z,39.78
2022-12-25T23:26:39.507Z,39.13
2022-12-25T23:29:42.127Z,41.70
2022-12-25T23:32:44.700Z,41.97
2022-12-25T23:35:47.110Z,36.40
2022-12-25T23:38:49.533Z,39.20
2022-12-25T23:41:51.997Z,37.25
2022-12-25T23:44:54.598Z,37.40
2022-12-25T23:47:56.954Z,34.65
2022-12-25T23:51:05.957Z,35.78
2022-12-25T23:54:08.492Z,36.80
2022-12-25T23:57:10.885Z,36.63
